Time,TemperatureF,DewpointF,PressureIn,WindDirection,WindDirectionDegrees,WindSpeedMPH,WindSpeedGustMPH,Humidity,HourlyPrecipIn,Conditions,Clouds,dailyrainin,SoftwareType,DateUTC
2013-04-27 00:02:00,41.1,38.7,30.42,East,83,0.0,3.0,91,0.00,,OVC095,0.00,VWS V14.00,2013-04-27 04:02:00,
2013-04-27 00:07:00,40.8,38.4,30.42,East,83,0.0,0.0,91,0.00,,OVC095,0.00,VWS V14.00,2013-04-27 04:07:00,
2013-04-27 00:12:00,40.7,38.3,30.42,East,83,1.0,2.0,91,0.00,,OVC095,0.00,VWS V14.00,2013-04-27 04:12:00,
2013-04-27 00:17:00,40.5,38.4,30.42,East,83,0.0,2.0,92,0.00,,OVC095,0.00,VWS V14.00,2013-04-27 04:17:00,
2013-04-27 00:22:00,40.4,38.3,30.42,East,83,0.0,2.0,92,0.00,,OVC095,0.00,VWS V14.00,2013-04-27 04:22:00,
2013-04-27 00:27:00,40.3,38.2,30.42,East,83,0.0,2.0,92,0.00,,OVC095,0.00,VWS V14.00,2013-04-27 04:27:00,
2013-04-27 00:32:00,40.1,38.2,30.42,East,83,0.0,1.0,93,0.00,,OVC095,0.00,VWS V14.00,2013-04-27 04:32:00,
2013-04-27 00:37:00,40.0,38.4,30.42,East,83,0.0,1.0,94,0.00,,OVC095,0.00,VWS V14.00,2013-04-27 04:37:00,
2013-04-27 00:42:00,39.8,38.2,30.42,East,83,1.0,2.0,94,0.00,,OVC095,0.00,VWS V14.00,2013-04-27 04:42:00,
2013-04-27 00:47:00,39.7,38.1,30.42,East,83,0.0,2.0,94,0.00,,OVC095,0.00,VWS V14.00,2013-04-27 04:47:00,
2013-04-27 00:52:00,39.4,37.8,30.42,East,83,0.0,2.0,94,0.00,,OVC095,0.00,VWS V14.00,2013-04-27 04:52:00,
2013-04-27 00:57:00,39.1,37.8,30.42,East,83,0.0,2.0,95,0.00,,OVC095,0.00,VWS V14.00,2013-04-27 04:57:00,
2013-04-27 01:02:00,39.0,37.7,30.42,East,83,0.0,0.0,95,0.00,,BKN095,0.00,VWS V14.00,2013-04-27 05:02:00,
2013-04-27 01:07:00,38.8,37.5,30.42,East,83,0.0,0.0,95,0.00,,BKN095,0.00,VWS V14.00,2013-04-27 05:07:00,
2013-04-27 01:12:00,38.7,37.1,30.42,East,83,0.0,1.0,94,0.00,,BKN095,0.00,VWS V14.00,2013-04-27 05:12:00,
2013-04-27 01:17:00,38.5,37.2,30.42,East,83,0.0,2.0,95,0.00,,BKN095,0.00,VWS V14.00,2013-04-27 05:17:00,
2013-04-27 01:22:00,38.5,36.9,30.42,East,83,0.0,2.0,94,0.00,,BKN095,0.00,VWS V14.00,2013-04-27 05:22:00,
2013-04-27 01:27:00,38.4,37.1,30.42,East,83,0.0,2.0,95,0.00,,BKN095,0.00,VWS V14.00,2013-04-27 05:27:00,
2013-04-27 01:32:00,38.3,37.0,30.42,East,83,0.0,0.0,95,0.00,,BKN095,0.00,VWS V14.00,2013-04-27 05:32:00,
2013-04-27 01:37:00,38.3,37.0,30.42,East,83,0.0,0.0,95,0.00,,BKN095,0.00,VWS V14.00,2013-04-27 05:37:00,
2013-04-27 01:42:00,38.1,36.8,30.42,East,83,0.0,0.0,95,0.00,,BKN095,0.00,VWS V14.00,2013-04-27 05:42:00,
2013-04-27 01:47:00,38.1,37.1,30.42,East,83,0.0,0.0,96,0.00,,BKN095,0.00,VWS V14.00,2013-04-27 05:47:00,
2013-04-27 01:52:00,38.0,37.0,30.42,East,83,0.0,0.0,96,0.00,,BKN095,0.00,VWS V14.00,2013-04-27 05:52:00,
2013-04-27 01:57:00,38.0,37.0,30.42,East,83,0.0,0.0,96,0.00,,BKN095,0.00,VWS V14.00,2013-04-27 05:57:00,
2013-04-27 02:02:00,38.0,37.0,30.41,East,83,0.0,1.0,96,0.00,,SCT090,0.00,VWS V14.00,2013-04-27 06:02:00,
2013-04-27 02:07:00,38.0,37.0,30.41,East,83,0.0,1.0,96,0.00,,SCT090,0.00,VWS V14.00,2013-04-27 06:07:00,
2013-04-27 02:12:00,38.0,37.0,30.41,East,83,0.0,1.0,96,0.00,,SCT090,0.00,VWS V14.00,2013-04-27 06:12:00,
2013-04-27 02:17:00,38.0,37.0,30.41,East,83,0.0,1.0,96,0.00,,SCT090,0.00,VWS V14.00,2013-04-27 06:17:00,
2013-04-27 02:22:00,37.8,37.0,30.41,East,83,0.0,1.0,97,0.00,,SCT090,0.00,VWS V14.00,2013-04-27 06:22:00,
2013-04-27 02:27:00,37.8,37.0,30.41,East,83,0.0,1.0,97,0.00,,SCT090,0.00,VWS V14.00,2013-04-27 06:27:00,
2013-04-27 02:32:00,37.8,36.8,30.41,East,83,0.0,0.0,96,0.00,,SCT090,0.00,VWS V14.00,2013-04-27 06:32:00,
2013-04-27 02:37:00,37.7,36.9,30.41,East,83,0.0,0.0,97,0.00,,SCT090,0.00,VWS V14.00,2013-04-27 06:37:00,
2013-04-27 02:42:00,37.7,36.9,30.41,East,83,0.0,2.0,97,0.00,,SCT090,0.00,VWS V14.00,2013-04-27 06:42:00,
2013-04-27 02:47:00,37.8,37.0,30.41,East,83,0.0,2.0,97,0.00,,SCT090,0.00,VWS V14.00,2013-04-27 06:47:00,
2013-04-27 02:52:00,37.8,37.0,30.41,East,83,0.0,2.0,97,0.00,,SCT090,0.00,VWS V14.00,2013-04-27 06:52:00,
2013-04-27 02:57:00,37.8,37.0,30.41,East,83,0.0,2.0,97,0.00,,SCT090,0.00,VWS V14.00,2013-04-27 06:57:00,
2013-04-27 03:02:00,37.7,37.2,30.41,East,83,0.0,0.0,98,0.00,,CLR,0.00,VWS V14.00,2013-04-27 07:02:00,
2013-04-27 03:07:00,37.5,36.7,30.41,East,83,0.0,0.0,97,0.00,,CLR,0.00,VWS V14.00,2013-04-27 07:07:00,
2013-04-27 03:12:00,37.5,36.7,30.41,East,83,0.0,0.0,97,0.00,,CLR,0.00,VWS V14.00,2013-04-27 07:12:00,
2013-04-27 03:17:00,37.5,37.0,30.41,East,83,0.0,0.0,98,0.00,,CLR,0.00,VWS V14.00,2013-04-27 07:17:00,
2013-04-27 03:22:00,37.4,36.6,30.41,East,83,0.0,0.0,97,0.00,,CLR,0.00,VWS V14.00,2013-04-27 07:22:00,
2013-04-27 03:27:00,37.4,36.9,30.41,East,83,0.0,0.0,98,0.00,,CLR,0.00,VWS V14.00,2013-04-27 07:27:00,
2013-04-27 03:32:00,37.3,36.8,30.41,East,83,0.0,0.0,98,0.00,,CLR,0.00,VWS V14.00,2013-04-27 07:32:00,
2013-04-27 03:37:00,37.3,36.8,30.40,East,83,0.0,0.0,98,0.00,,CLR,0.00,VWS V14.00,2013-04-27 07:37:00,
2013-04-27 03:42:00,37.1,36.6,30.41,East,83,0.0,0.0,98,0.00,,CLR,0.00,VWS V14.00,2013-04-27 07:42:00,
2013-04-27 03:47:00,37.1,36.6,30.40,East,83,0.0,0.0,98,0.00,,CLR,0.00,VWS V14.00,2013-04-27 07:47:00,
2013-04-27 03:52:00,37.0,36.5,30.40,East,83,0.0,0.0,98,0.00,,CLR,0.00,VWS V14.00,2013-04-27 07:52:00,
2013-04-27 03:57:00,37.0,36.5,30.40,East,83,0.0,0.0,98,0.00,,CLR,0.00,VWS V14.00,2013-04-27 07:57:00,
2013-04-27 04:02:00,37.0,36.8,30.40,East,83,0.0,2.0,99,0.00,,CLR,0.00,VWS V14.00,2013-04-27 08:02:00,
2013-04-27 04:07:00,37.0,36.5,30.40,East,83,0.0,2.0,98,0.00,,CLR,0.00,VWS V14.00,2013-04-27 08:07:00,
2013-04-27 04:12:00,37.1,36.8,30.40,East,83,0.0,2.0,99,0.00,,CLR,0.00,VWS V14.00,2013-04-27 08:12:00,
2013-04-27 04:17:00,37.1,36.8,30.39,East,83,0.0,2.0,99,0.00,,CLR,0.00,VWS V14.00,2013-04-27 08:17:00,
2013-04-27 04:22:00,37.3,37.0,30.40,East,83,0.0,2.0,99,0.00,,CLR,0.00,VWS V14.00,2013-04-27 08:22:00,
2013-04-27 04:27:00,37.4,37.2,30.39,East,83,0.0,2.0,99,0.00,,CLR,0.00,VWS V14.00,2013-04-27 08:27:00,
2013-04-27 04:32:00,37.4,37.2,30.39,East,83,0.0,0.0,99,0.00,,CLR,0.00,VWS V14.00,2013-04-27 08:32:00,
2013-04-27 04:37:00,37.4,37.2,30.39,East,83,0.0,0.0,99,0.00,,CLR,0.00,VWS V14.00,2013-04-27 08:37:00,
2013-04-27 04:42:00,37.3,37.0,30.39,East,83,0.0,0.0,99,0.00,,CLR,0.00,VWS V14.00,2013-04-27 08:42:00,
2013-04-27 04:47:00,37.1,36.8,30.39,East,83,0.0,0.0,99,0.00,,CLR,0.00,VWS V14.00,2013-04-27 08:47:00,
2013-04-27 04:52:00,37.1,36.8,30.39,East,83,0.0,0.0,99,0.00,,CLR,0.00,VWS V14.00,2013-04-27 08:52:00,
2013-04-27 04:57:00,37.0,36.8,30.39,East,83,0.0,0.0,99,0.00,,CLR,0.00,VWS V14.00,2013-04-27 08:57:00,
2013-04-27 05:02:00,36.7,36.5,30.39,East,83,0.0,0.0,99,0.00,,CLR,0.00,VWS V14.00,2013-04-27 09:02:00,
2013-04-27 05:07:00,36.5,36.2,30.39,East,83,0.0,0.0,99,0.00,,CLR,0.00,VWS V14.00,2013-04-27 09:07:00,
2013-04-27 05:12:00,36.4,36.4,30.39,East,83,0.0,0.0,100,0.00,,CLR,0.00,VWS V14.00,2013-04-27 09:12:00,
2013-04-27 05:17:00,36.1,35.8,30.39,East,83,0.0,0.0,99,0.00,,CLR,0.00,VWS V14.00,2013-04-27 09:17:00,
2013-04-27 05:22:00,36.0,36.0,30.39,East,83,0.0,0.0,100,0.00,,CLR,0.00,VWS V14.00,2013-04-27 09:22:00,
2013-04-27 05:27:00,35.8,35.5,30.40,East,83,0.0,0.0,99,0.00,,CLR,0.00,VWS V14.00,2013-04-27 09:27:00,
2013-04-27 05:32:00,35.7,35.5,30.40,East,83,1.0,2.0,99,0.00,,CLR,0.00,VWS V14.00,2013-04-27 09:32:00,
2013-04-27 05:37:00,35.4,35.4,30.40,East,83,0.0,2.0,100,0.00,,CLR,0.00,VWS V14.00,2013-04-27 09:37:00,
2013-04-27 05:42:00,35.1,34.8,30.40,East,83,0.0,2.0,99,0.00,,CLR,0.00,VWS V14.00,2013-04-27 09:42:00,
2013-04-27 05:47:00,34.8,34.5,30.40,East,83,0.0,2.0,99,0.00,,CLR,0.00,VWS V14.00,2013-04-27 09:47:00,
2013-04-27 05:52:00,34.5,34.5,30.41,East,83,0.0,2.0,100,0.00,,CLR,0.00,VWS V14.00,2013-04-27 09:52:00,
2013-04-27 05:57:00,34.4,34.4,30.41,East,83,0.0,2.0,100,0.00,,CLR,0.00,VWS V14.00,2013-04-27 09:57:00,
2013-04-27 06:02:00,34.4,34.2,30.40,East,83,0.0,0.0,99,0.00,,CLR,0.00,VWS V14.00,2013-04-27 10:02:00,
2013-04-27 06:07:00,34.3,34.3,30.40,East,83,0.0,0.0,100,0.00,,CLR,0.00,VWS V14.00,2013-04-27 10:07:00,
2013-04-27 06:12:00,34.4,34.4,30.40,East,83,0.0,0.0,100,0.00,,CLR,0.00,VWS V14.00,2013-04-27 10:12:00,
2013-04-27 06:17:00,34.5,34.5,30.41,East,83,0.0,0.0,100,0.00,,CLR,0.00,VWS V14.00,2013-04-27 10:17:00,
2013-04-27 06:22:00,34.7,34.7,30.41,East,83,0.0,0.0,100,0.00,,CLR,0.00,VWS V14.00,2013-04-27 10:22:00,
2013-04-27 06:27:00,34.7,34.7,30.41,East,83,0.0,0.0,100,0.00,,CLR,0.00,VWS V14.00,2013-04-27 10:27:00,
2013-04-27 06:32:00,34.7,34.5,30.41,East,83,0.0,0.0,99,0.00,,CLR,0.00,VWS V14.00,2013-04-27 10:32:00,
2013-04-27 06:37:00,34.8,34.8,30.41,East,86,0.0,0.0,100,0.00,,CLR,0.00,VWS V14.00,2013-04-27 10:37:00,
2013-04-27 06:42:00,35.0,35.0,30.41,East,86,0.0,0.0,100,0.00,,CLR,0.00,VWS V14.00,2013-04-27 10:42:00,
2013-04-27 06:47:00,35.3,35.3,30.41,East,86,0.0,0.0,100,0.00,,CLR,0.00,VWS V14.00,2013-04-27 10:47:00,
2013-04-27 06:52:00,35.5,35.5,30.41,East,87,0.0,0.0,100,0.00,,CLR,0.00,VWS V14.00,2013-04-27 10:52:00,
2013-04-27 06:57:00,36.0,36.0,30.41,East,86,0.0,0.0,100,0.00,,CLR,0.00,VWS V14.00,2013-04-27 10:57:00,
2013-04-27 07:02:00,36.4,36.4,30.41,East,86,0.0,0.0,100,0.00,,SCT002,0.00,VWS V14.00,2013-04-27 11:02:00,
2013-04-27 07:07:00,36.7,36.7,30.41,East,86,0.0,0.0,100,0.00,,SCT002,0.00,VWS V14.00,2013-04-27 11:07:00,
2013-04-27 07:12:00,37.0,37.0,30.41,East,86,0.0,0.0,100,0.00,,SCT002,0.00,VWS V14.00,2013-04-27 11:12:00,
2013-04-27 07:17:00,37.3,37.3,30.41,East,86,0.0,2.0,100,0.00,,SCT002,0.00,VWS V14.00,2013-04-27 11:17:00,
2013-04-27 07:22:00,37.5,37.5,30.41,North,0,1.0,2.0,100,0.00,,SCT002,0.00,VWS V14.00,2013-04-27 11:22:00,
2013-04-27 07:27:00,37.8,37.8,30.42,North,0,2.0,3.0,100,0.00,,SCT002,0.00,VWS V14.00,2013-04-27 11:27:00,
2013-04-27 07:32:00,38.3,38.3,30.41,North,0,0.0,3.0,100,0.00,,SCT002,0.00,VWS V14.00,2013-04-27 11:32:00,
2013-04-27 07:37:00,38.5,38.5,30.41,North,0,0.0,3.0,100,0.00,,SCT002,0.00,VWS V14.00,2013-04-27 11:37:00,
2013-04-27 07:42:00,39.0,39.0,30.42,North,0,0.0,3.0,100,0.00,,SCT002,0.00,VWS V14.00,2013-04-27 11:42:00,
2013-04-27 07:47:00,39.5,39.5,30.42,North,0,0.0,3.0,100,0.00,,SCT002,0.00,VWS V14.00,2013-04-27 11:47:00,
2013-04-27 07:52:00,40.1,40.1,30.42,North,0,0.0,3.0,100,0.00,,SCT002,0.00,VWS V14.00,2013-04-27 11:52:00,
2013-04-27 07:57:00,40.7,40.7,30.41,North,0,0.0,3.0,100,0.00,,SCT002,0.00,VWS V14.00,2013-04-27 11:57:00,
2013-04-27 08:02:00,41.4,41.4,30.41,North,0,0.0,3.0,100,0.00,,FEW002,0.00,VWS V14.00,2013-04-27 12:02:00,
2013-04-27 08:07:00,42.1,42.1,30.41,North,0,0.0,3.0,100,0.00,,FEW002,0.00,VWS V14.00,2013-04-27 12:07:00,
2013-04-27 08:12:00,43.1,43.1,30.41,North,0,0.0,3.0,100,0.00,,FEW002,0.00,VWS V14.00,2013-04-27 12:12:00,
2013-04-27 08:17:00,44.0,44.0,30.41,North,0,2.0,3.0,100,0.00,,FEW002,0.00,VWS V14.00,2013-04-27 12:17:00,
2013-04-27 08:22:00,44.7,44.4,30.42,North,0,0.0,3.0,99,0.00,,FEW002,0.00,VWS V14.00,2013-04-27 12:22:00,
2013-04-27 08:27:00,45.6,44.5,30.41,North,0,3.0,3.0,96,0.00,,FEW002,0.00,VWS V14.00,2013-04-27 12:27:00,
2013-04-27 08:32:00,46.5,44.9,30.41,North,0,2.0,4.0,94,0.00,,FEW002,0.00,VWS V14.00,2013-04-27 12:32:00,
2013-04-27 08:37:00,47.2,44.4,30.41,North,0,0.0,4.0,90,0.00,,FEW002,0.00,VWS V14.00,2013-04-27 12:37:00,
2013-04-27 08:42:00,48.1,44.1,30.41,North,0,1.0,4.0,86,0.00,,FEW002,0.00,VWS V14.00,2013-04-27 12:42:00,
2013-04-27 08:47:00,48.7,43.8,30.41,North,0,2.0,4.0,83,0.00,,FEW002,0.00,VWS V14.00,2013-04-27 12:47:00,
2013-04-27 08:52:00,49.3,43.4,30.41,North,0,0.0,4.0,80,0.00,,FEW002,0.00,VWS V14.00,2013-04-27 12:52:00,
2013-04-27 08:57:00,50.0,42.7,30.41,North,0,1.0,4.0,76,0.00,,FEW002,0.00,VWS V14.00,2013-04-27 12:57:00,
2013-04-27 09:02:00,50.9,42.9,30.41,North,0,1.0,4.0,74,0.00,,,0.00,VWS V14.00,2013-04-27 13:02:00,
2013-04-27 09:07:00,51.6,42.5,30.41,North,0,3.0,4.0,71,0.00,,,0.00,VWS V14.00,2013-04-27 13:07:00,
2013-04-27 09:12:00,51.9,42.4,30.41,North,0,4.0,4.0,70,0.00,,,0.00,VWS V14.00,2013-04-27 13:12:00,
2013-04-27 09:17:00,52.1,41.9,30.41,North,0,2.0,4.0,68,0.00,,,0.00,VWS V14.00,2013-04-27 13:17:00,
2013-04-27 09:22:00,52.6,42.0,30.41,North,0,0.0,5.0,67,0.00,,,0.00,VWS V14.00,2013-04-27 13:22:00,
2013-04-27 09:27:00,53.4,42.3,30.41,North,0,1.0,5.0,66,0.00,,,0.00,VWS V14.00,2013-04-27 13:27:00,
2013-04-27 09:32:00,54.3,42.8,30.41,North,0,2.0,2.0,65,0.00,,,0.00,VWS V14.00,2013-04-27 13:32:00,
2013-04-27 09:37:00,54.5,41.8,30.41,North,0,1.0,4.0,62,0.00,,,0.00,VWS V14.00,2013-04-27 13:37:00,
2013-04-27 09:42:00,54.4,41.2,30.41,North,0,1.0,5.0,61,0.00,,,0.00,VWS V14.00,2013-04-27 13:42:00,
2013-04-27 09:48:00,54.4,41.2,30.40,North,0,1.0,5.0,61,0.00,,,0.00,VWS V14.00,2013-04-27 13:48:00,
2013-04-27 09:53:00,54.7,41.1,30.40,North,0,2.0,5.0,60,0.00,,,0.00,VWS V14.00,2013-04-27 13:53:00,
2013-04-27 09:58:00,54.5,40.9,30.40,North,357,2.0,2.0,60,0.00,,CLR,0.00,VWS V14.00,2013-04-27 13:58:00,
2013-04-27 10:03:00,55.4,42.2,30.40,NNE,27,2.0,5.0,61,0.00,,CLR,0.00,VWS V14.00,2013-04-27 14:03:00,
2013-04-27 10:08:00,55.9,41.3,30.41,NNE,28,1.0,5.0,58,0.00,,CLR,0.00,VWS V14.00,2013-04-27 14:08:00,
2013-04-27 10:13:00,56.0,41.9,30.40,NE,39,2.0,5.0,59,0.00,,CLR,0.00,VWS V14.00,2013-04-27 14:13:00,
2013-04-27 10:18:00,56.2,41.6,30.40,NE,41,3.0,5.0,58,0.00,,CLR,0.00,VWS V14.00,2013-04-27 14:18:00,
2013-04-27 10:23:00,55.9,41.3,30.40,NE,42,2.0,5.0,58,0.00,,CLR,0.00,VWS V14.00,2013-04-27 14:23:00,
2013-04-27 10:28:00,56.3,41.7,30.40,NE,42,1.0,2.0,58,0.00,,CLR,0.00,VWS V14.00,2013-04-27 14:28:00,
2013-04-27 10:33:00,56.3,40.4,30.40,SSE,164,1.0,5.0,55,0.00,,CLR,0.00,VWS V14.00,2013-04-27 14:33:00,
2013-04-27 10:38:00,56.3,40.8,30.40,SSE,156,5.0,6.0,56,0.00,,CLR,0.00,VWS V14.00,2013-04-27 14:38:00,
2013-04-27 10:43:00,56.2,40.3,30.41,South,169,0.0,6.0,55,0.00,,CLR,0.00,VWS V14.00,2013-04-27 14:43:00,
2013-04-27 10:48:00,57.1,40.6,30.41,East,95,1.0,6.0,54,0.00,,CLR,0.00,VWS V14.00,2013-04-27 14:48:00,
2013-04-27 10:53:00,57.5,41.0,30.41,SW,227,5.0,6.0,54,0.00,,CLR,0.00,VWS V14.00,2013-04-27 14:53:00,
2013-04-27 10:58:00,56.8,39.9,30.41,South,186,3.0,4.0,53,0.00,,CLR,0.00,VWS V14.00,2013-04-27 14:58:00,
2013-04-27 11:03:00,56.5,39.1,30.41,SSW,200,3.0,4.0,52,0.00,,CLR,0.00,VWS V14.00,2013-04-27 15:03:00,
2013-04-27 11:08:00,57.4,40.4,30.41,SSW,198,3.0,4.0,53,0.00,,CLR,0.00,VWS V14.00,2013-04-27 15:08:00,
2013-04-27 11:13:00,58.1,40.1,30.41,SSW,196,2.0,4.0,51,0.00,,CLR,0.00,VWS V14.00,2013-04-27 15:13:00,
2013-04-27 11:18:00,59.0,40.9,30.41,SE,145,4.0,5.0,51,0.00,,CLR,0.00,VWS V14.00,2013-04-27 15:18:00,
2013-04-27 11:23:00,58.4,39.8,30.40,SSE,156,3.0,5.0,50,0.00,,CLR,0.00,VWS V14.00,2013-04-27 15:23:00,
2013-04-27 11:28:00,57.8,38.3,30.40,ENE,75,3.0,5.0,48,0.00,,CLR,0.00,VWS V14.00,2013-04-27 15:28:00,
2013-04-27 11:33:00,58.2,38.6,30.40,South,184,5.0,7.0,48,0.00,,CLR,0.00,VWS V14.00,2013-04-27 15:33:00,
2013-04-27 11:38:00,57.8,37.7,30.40,SSE,150,2.0,7.0,47,0.00,,CLR,0.00,VWS V14.00,2013-04-27 15:38:00,
2013-04-27 11:43:00,58.0,38.4,30.40,SSE,150,2.0,7.0,48,0.00,,CLR,0.00,VWS V14.00,2013-04-27 15:43:00,
2013-04-27 11:48:00,58.0,39.5,30.40,SSE,166,2.0,7.0,50,0.00,,CLR,0.00,VWS V14.00,2013-04-27 15:48:00,
2013-04-27 11:53:00,58.9,39.8,30.39,North,349,4.0,7.0,49,0.00,,CLR,0.00,VWS V14.00,2013-04-27 15:53:00,
2013-04-27 11:58:00,59.5,40.3,30.39,NNW,339,2.0,3.0,49,0.00,,CLR,0.00,VWS V14.00,2013-04-27 15:58:00,
2013-04-27 12:03:00,60.2,40.5,30.39,SSW,200,5.0,7.0,48,0.00,,CLR,0.00,VWS V14.00,2013-04-27 16:03:00,
2013-04-27 12:08:00,59.2,40.1,30.39,SSW,207,5.0,7.0,49,0.00,,CLR,0.00,VWS V14.00,2013-04-27 16:08:00,
2013-04-27 12:13:00,58.7,39.6,30.39,South,190,6.0,8.0,49,0.00,,CLR,0.00,VWS V14.00,2013-04-27 16:13:00,
2013-04-27 12:18:00,58.3,39.2,30.39,NW,310,3.0,8.0,49,0.00,,CLR,0.00,VWS V14.00,2013-04-27 16:18:00,
2013-04-27 12:23:00,59.0,39.9,30.38,NNW,328,2.0,8.0,49,0.00,,CLR,0.00,VWS V14.00,2013-04-27 16:23:00,
2013-04-27 12:28:00,60.2,41.0,30.38,NE,43,4.0,4.0,49,0.00,,CLR,0.00,VWS V14.00,2013-04-27 16:28:00,
2013-04-27 12:33:00,60.7,40.4,30.38,NE,46,4.0,5.0,47,0.00,,CLR,0.00,VWS V14.00,2013-04-27 16:33:00,
2013-04-27 12:38:00,60.9,40.5,30.38,ENE,69,4.0,6.0,47,0.00,,CLR,0.00,VWS V14.00,2013-04-27 16:38:00,
2013-04-27 12:43:00,60.1,39.8,30.37,SSE,149,1.0,7.0,47,0.00,,CLR,0.00,VWS V14.00,2013-04-27 16:43:00,
2013-04-27 12:48:00,59.7,40.0,30.37,SSE,152,3.0,7.0,48,0.00,,CLR,0.00,VWS V14.00,2013-04-27 16:48:00,
2013-04-27 12:53:00,59.6,39.9,30.37,WSW,242,2.0,9.0,48,0.00,,CLR,0.00,VWS V14.00,2013-04-27 16:53:00,
2013-04-27 12:58:00,60.1,40.4,30.37,WSW,247,4.0,4.0,48,0.00,,CLR,0.00,VWS V14.00,2013-04-27 16:58:00,
2013-04-27 13:03:00,60.2,39.9,30.36,SSW,192,3.0,6.0,47,0.00,,CLR,0.00,VWS V14.00,2013-04-27 17:03:00,
2013-04-27 13:08:00,60.1,39.8,30.36,South,182,1.0,6.0,47,0.00,,CLR,0.00,VWS V14.00,2013-04-27 17:08:00,
2013-04-27 13:13:00,60.3,40.0,30.36,SSW,210,4.0,6.0,47,0.00,,CLR,0.00,VWS V14.00,2013-04-27 17:13:00,
2013-04-27 13:18:00,60.6,40.3,30.36,SW,217,4.0,6.0,47,0.00,,CLR,0.00,VWS V14.00,2013-04-27 17:18:00,
2013-04-27 13:23:00,61.0,40.1,30.36,West,268,1.0,6.0,46,0.00,,CLR,0.00,VWS V14.00,2013-04-27 17:23:00,
2013-04-27 13:28:00,62.3,41.3,30.36,West,274,1.0,2.0,46,0.00,,CLR,0.00,VWS V14.00,2013-04-27 17:28:00,
2013-04-27 13:33:00,63.2,41.5,30.36,WNW,284,2.0,4.0,45,0.00,,CLR,0.00,VWS V14.00,2013-04-27 17:33:00,
2013-04-27 13:38:00,62.9,40.1,30.35,SSE,168,2.0,6.0,43,0.00,,CLR,0.00,VWS V14.00,2013-04-27 17:38:00,
2013-04-27 13:43:00,63.1,40.3,30.35,SSE,154,4.0,6.0,43,0.00,,CLR,0.00,VWS V14.00,2013-04-27 17:43:00,
2013-04-27 13:48:00,62.1,38.8,30.35,SSE,158,3.0,6.0,42,0.00,,CLR,0.00,VWS V14.00,2013-04-27 17:48:00,
2013-04-27 13:53:00,61.7,39.0,30.35,SE,146,3.0,6.0,43,0.00,,CLR,0.00,VWS V14.00,2013-04-27 17:53:00,
2013-04-27 13:58:00,61.7,39.0,30.35,SE,128,3.0,4.0,43,0.00,,BKN200,0.00,VWS V14.00,2013-04-27 17:58:00,
2013-04-27 14:03:00,61.2,39.1,30.34,SSE,164,2.0,6.0,44,0.00,,BKN200,0.00,VWS V14.00,2013-04-27 18:03:00,
2013-04-27 14:08:00,61.5,40.0,30.34,SSE,164,1.0,6.0,45,0.00,,BKN200,0.00,VWS V14.00,2013-04-27 18:08:00,
2013-04-27 14:13:00,61.5,38.8,30.34,SSE,164,1.0,6.0,43,0.00,,BKN200,0.00,VWS V14.00,2013-04-27 18:13:00,
2013-04-27 14:18:00,61.2,39.1,30.34,SSE,164,0.0,6.0,44,0.00,,BKN200,0.00,VWS V14.00,2013-04-27 18:18:00,
2013-04-27 14:23:00,60.9,38.9,30.34,SSE,164,0.0,6.0,44,0.00,,BKN200,0.00,VWS V14.00,2013-04-27 18:23:00,
2013-04-27 14:28:00,61.2,39.1,30.34,SSE,164,2.0,2.0,44,0.00,,BKN200,0.00,VWS V14.00,2013-04-27 18:28:00,
2013-04-27 14:33:00,61.2,39.1,30.34,East,89,3.0,5.0,44,0.00,,BKN200,0.00,VWS V14.00,2013-04-27 18:33:00,
2013-04-27 14:38:00,61.2,39.1,30.33,East,88,4.0,5.0,44,0.00,,BKN200,0.00,VWS V14.00,2013-04-27 18:38:00,
2013-04-27 14:43:00,61.2,39.7,30.33,East,88,1.0,5.0,45,0.00,,BKN200,0.00,VWS V14.00,2013-04-27 18:43:00,
2013-04-27 14:48:00,61.4,39.3,30.33,ENE,68,1.0,5.0,44,0.00,,BKN200,0.00,VWS V14.00,2013-04-27 18:48:00,
2013-04-27 14:53:00,61.7,40.2,30.33,ENE,68,0.0,5.0,45,0.00,,BKN200,0.00,VWS V14.00,2013-04-27 18:53:00,
2013-04-27 14:58:00,61.8,40.8,30.32,ENE,68,0.0,1.0,46,0.00,,BKN200,0.00,VWS V14.00,2013-04-27 18:58:00,
2013-04-27 15:03:00,62.3,40.7,30.32,ENE,68,2.0,5.0,45,0.00,,BKN200,0.00,VWS V14.00,2013-04-27 19:03:00,
2013-04-27 15:08:00,62.1,39.4,30.32,ENE,68,3.0,5.0,43,0.00,,BKN200,0.00,VWS V14.00,2013-04-27 19:08:00,
2013-04-27 15:13:00,62.0,39.9,30.32,ENE,64,1.0,5.0,44,0.00,,BKN200,0.00,VWS V14.00,2013-04-27 19:13:00,
2013-04-27 15:18:00,62.4,39.6,30.32,ENE,69,3.0,5.0,43,0.00,,BKN200,0.00,VWS V14.00,2013-04-27 19:18:00,
2013-04-27 15:23:00,62.3,38.9,30.32,ENE,69,2.0,5.0,42,0.00,,BKN200,0.00,VWS V14.00,2013-04-27 19:23:00,
2013-04-27 15:28:00,62.1,39.4,30.32,East,88,2.0,2.0,43,0.00,,BKN200,0.00,VWS V14.00,2013-04-27 19:28:00,
2013-04-27 15:33:00,62.9,39.5,30.31,West,273,2.0,6.0,42,0.00,,BKN200,0.00,VWS V14.00,2013-04-27 19:33:00,
2013-04-27 15:38:00,63.5,40.0,30.31,NW,312,2.0,7.0,42,0.00,,BKN200,0.00,VWS V14.00,2013-04-27 19:38:00,
2013-04-27 15:43:00,64.1,39.3,30.31,NW,313,2.0,7.0,40,0.00,,BKN200,0.00,VWS V14.00,2013-04-27 19:43:00,
2013-04-27 15:48:00,64.2,38.8,30.31,NW,314,1.0,7.0,39,0.00,,BKN200,0.00,VWS V14.00,2013-04-27 19:48:00,
2013-04-27 15:53:00,64.5,39.0,30.30,NW,323,4.0,7.0,39,0.00,,BKN200,0.00,VWS V14.00,2013-04-27 19:53:00,
2013-04-27 15:58:00,65.2,39.0,30.30,NNW,336,1.0,1.0,38,0.00,,BKN200,0.00,VWS V14.00,2013-04-27 19:58:00,
2013-04-27 16:03:00,64.7,38.5,30.30,NNW,335,3.0,7.0,38,0.00,,FEW075,0.00,VWS V14.00,2013-04-27 20:03:00,
2013-04-27 16:08:00,64.5,38.3,30.30,NNW,334,4.0,7.0,38,0.00,,FEW075,0.00,VWS V14.00,2013-04-27 20:08:00,
2013-04-27 16:13:00,64.5,37.7,30.30,SW,233,1.0,7.0,37,0.00,,FEW075,0.00,VWS V14.00,2013-04-27 20:13:00,
2013-04-27 16:18:00,64.2,38.1,30.30,West,261,2.0,7.0,38,0.00,,FEW075,0.00,VWS V14.00,2013-04-27 20:18:00,
2013-04-27 16:23:00,64.1,38.0,30.29,South,169,1.0,7.0,38,0.00,,FEW075,0.00,VWS V14.00,2013-04-27 20:23:00,
2013-04-27 16:28:00,64.1,38.7,30.29,South,171,4.0,4.0,39,0.00,,FEW075,0.00,VWS V14.00,2013-04-27 20:28:00,
2013-04-27 16:33:00,64.4,38.9,30.29,South,180,1.0,4.0,39,0.00,,FEW075,0.00,VWS V14.00,2013-04-27 20:33:00,
2013-04-27 16:38:00,65.2,38.3,30.29,SSW,194,3.0,4.0,37,0.00,,FEW075,0.00,VWS V14.00,2013-04-27 20:38:00,
2013-04-27 16:43:00,65.3,39.7,30.29,SSE,157,3.0,6.0,39,0.00,,FEW075,0.00,VWS V14.00,2013-04-27 20:43:00,
2013-04-27 16:48:00,64.0,39.2,30.29,SSE,154,2.0,6.0,40,0.00,,FEW075,0.00,VWS V14.00,2013-04-27 20:48:00,
2013-04-27 16:53:00,63.2,38.5,30.29,SSE,164,3.0,8.0,40,0.00,,FEW075,0.00,VWS V14.00,2013-04-27 20:53:00,
2013-04-27 16:58:00,62.8,38.1,30.29,SSE,157,1.0,1.0,40,0.00,,FEW075,0.00,VWS V14.00,2013-04-27 20:58:00,
2013-04-27 17:03:00,62.6,38.0,30.29,SE,138,1.0,7.0,40,0.00,,BKN200,0.00,VWS V14.00,2013-04-27 21:03:00,
2013-04-27 17:08:00,62.5,37.9,30.29,South,181,6.0,8.0,40,0.00,,BKN200,0.00,VWS V14.00,2013-04-27 21:08:00,
2013-04-27 17:13:00,62.3,37.7,30.29,South,174,2.0,8.0,40,0.00,,BKN200,0.00,VWS V14.00,2013-04-27 21:13:00,
2013-04-27 17:18:00,62.4,38.4,30.29,South,191,1.0,8.0,41,0.00,,BKN200,0.00,VWS V14.00,2013-04-27 21:18:00,
2013-04-27 17:23:00,62.6,38.0,30.29,South,184,2.0,8.0,40,0.00,,BKN200,0.00,VWS V14.00,2013-04-27 21:23:00,
2013-04-27 17:28:00,62.9,38.2,30.29,South,184,4.0,4.0,40,0.00,,BKN200,0.00,VWS V14.00,2013-04-27 21:28:00,
2013-04-27 17:33:00,62.8,39.4,30.29,SE,134,1.0,6.0,42,0.00,,BKN200,0.00,VWS V14.00,2013-04-27 21:33:00,
2013-04-27 17:38:00,62.6,39.2,30.29,SSE,158,2.0,6.0,42,0.00,,BKN200,0.00,VWS V14.00,2013-04-27 21:38:00,
2013-04-27 17:43:00,62.2,38.8,30.28,SSW,198,2.0,7.0,42,0.00,,BKN200,0.00,VWS V14.00,2013-04-27 21:43:00,
2013-04-27 17:48:00,62.0,39.3,30.28,SSW,209,2.0,7.0,43,0.00,,BKN200,0.00,VWS V14.00,2013-04-27 21:48:00,
2013-04-27 17:53:00,61.8,39.1,30.29,South,171,2.0,7.0,43,0.00,,BKN200,0.00,VWS V14.00,2013-04-27 21:53:00,
2013-04-27 17:58:00,61.8,39.1,30.28,ESE,116,2.0,6.0,43,0.00,,SCT075,0.00,VWS V14.00,2013-04-27 21:58:00,
2013-04-27 18:03:00,61.2,39.1,30.28,SSW,198,7.0,8.0,44,0.00,,SCT075,0.00,VWS V14.00,2013-04-27 22:03:00,
2013-04-27 18:08:00,60.8,38.8,30.29,SE,133,2.0,9.0,44,0.00,,SCT075,0.00,VWS V14.00,2013-04-27 22:08:00,
2013-04-27 18:13:00,60.4,39.5,30.29,South,186,3.0,9.0,46,0.00,,SCT075,0.00,VWS V14.00,2013-04-27 22:13:00,
2013-04-27 18:18:00,60.0,38.6,30.29,SSW,195,5.0,9.0,45,0.00,,SCT075,0.00,VWS V14.00,2013-04-27 22:18:00,
2013-04-27 18:23:00,59.5,39.3,30.28,SE,136,2.0,9.0,47,0.00,,SCT075,0.00,VWS V14.00,2013-04-27 22:23:00,
2013-04-27 18:28:00,59.2,39.5,30.28,South,191,2.0,3.0,48,0.00,,SCT075,0.00,VWS V14.00,2013-04-27 22:28:00,
2013-04-27 18:33:00,58.9,39.3,30.28,South,191,1.0,5.0,48,0.00,,SCT075,0.00,VWS V14.00,2013-04-27 22:33:00,
2013-04-27 18:38:00,58.6,39.5,30.29,South,181,2.0,6.0,49,0.00,,SCT075,0.00,VWS V14.00,2013-04-27 22:38:00,
2013-04-27 18:43:00,58.3,39.2,30.28,South,170,6.0,8.0,49,0.00,,SCT075,0.00,VWS V14.00,2013-04-27 22:43:00,
2013-04-27 18:48:00,58.0,39.0,30.29,SSE,162,5.0,10.0,49,0.00,,SCT075,0.00,VWS V14.00,2013-04-27 22:48:00,
2013-04-27 18:53:00,57.7,39.2,30.29,SSE,167,4.0,10.0,50,0.00,,SCT075,0.00,VWS V14.00,2013-04-27 22:53:00,
2013-04-27 18:58:00,57.4,38.9,30.29,SSW,198,2.0,3.0,50,0.00,,SCT075,0.00,VWS V14.00,2013-04-27 22:58:00,
2013-04-27 19:03:00,57.1,38.1,30.29,South,177,7.0,7.0,49,0.00,,SCT075,0.00,VWS V14.00,2013-04-27 23:03:00,
2013-04-27 19:08:00,56.6,38.2,30.29,South,177,1.0,8.0,50,0.00,,SCT075,0.00,VWS V14.00,2013-04-27 23:08:00,
2013-04-27 19:13:00,56.3,37.4,30.29,SSW,212,3.0,8.0,49,0.00,,SCT075,0.00,VWS V14.00,2013-04-27 23:13:00,
2013-04-27 19:18:00,55.7,37.4,30.30,SSW,198,7.0,8.0,50,0.00,,SCT075,0.00,VWS V14.00,2013-04-27 23:18:00,
2013-04-27 19:23:00,55.3,37.5,30.30,South,188,4.0,8.0,51,0.00,,SCT075,0.00,VWS V14.00,2013-04-27 23:23:00,
2013-04-27 19:28:00,54.8,37.0,30.30,SSW,194,8.0,8.0,51,0.00,,SCT075,0.00,VWS V14.00,2013-04-27 23:28:00,
2013-04-27 19:33:00,54.5,36.8,30.30,SSW,210,4.0,9.0,51,0.00,,SCT075,0.00,VWS V14.00,2013-04-27 23:33:00,
2013-04-27 19:38:00,54.1,36.9,30.30,WSW,242,1.0,9.0,52,0.00,,SCT075,0.00,VWS V14.00,2013-04-27 23:38:00,
2013-04-27 19:43:00,53.7,36.5,30.30,SSE,165,2.0,9.0,52,0.00,,SCT075,0.00,VWS V14.00,2013-04-27 23:43:00,
2013-04-27 19:48:00,53.2,36.0,30.30,South,186,3.0,9.0,52,0.00,,SCT075,0.00,VWS V14.00,2013-04-27 23:48:00,
2013-04-27 19:53:00,52.9,35.8,30.30,South,179,3.0,9.0,52,0.00,,SCT075,0.00,VWS V14.00,2013-04-27 23:53:00,
2013-04-27 19:58:00,52.6,36.0,30.30,SSW,212,2.0,5.0,53,0.00,,CLR,0.00,VWS V14.00,2013-04-27 23:58:00,
2013-04-27 20:03:00,52.3,35.2,30.31,SE,144,1.0,5.0,52,0.00,,CLR,0.00,VWS V14.00,2013-04-28 00:03:00,
2013-04-27 20:08:00,52.2,35.6,30.30,SSE,159,2.0,8.0,53,0.00,,CLR,0.00,VWS V14.00,2013-04-28 00:08:00,
2013-04-27 20:13:00,51.9,35.3,30.31,SSW,192,4.0,8.0,53,0.00,,CLR,0.00,VWS V14.00,2013-04-28 00:13:00,
2013-04-27 20:18:00,51.8,35.7,30.31,SSW,195,4.0,8.0,54,0.00,,CLR,0.00,VWS V14.00,2013-04-28 00:18:00,
2013-04-27 20:23:00,51.6,35.5,30.31,SSW,196,2.0,8.0,54,0.00,,CLR,0.00,VWS V14.00,2013-04-28 00:23:00,
2013-04-27 20:28:00,51.3,35.7,30.31,SSW,196,3.0,5.0,55,0.00,,CLR,0.00,VWS V14.00,2013-04-28 00:28:00,
2013-04-27 20:33:00,51.2,35.6,30.30,SSW,196,1.0,5.0,55,0.00,,CLR,0.00,VWS V14.00,2013-04-28 00:33:00,
2013-04-27 20:38:00,50.8,36.1,30.31,SSW,195,3.0,5.0,57,0.00,,CLR,0.00,VWS V14.00,2013-04-28 00:38:00,
2013-04-27 20:43:00,50.6,35.9,30.31,SSW,195,3.0,5.0,57,0.00,,CLR,0.00,VWS V14.00,2013-04-28 00:43:00,
2013-04-27 20:48:00,50.3,36.1,30.31,SSW,208,5.0,6.0,58,0.00,,CLR,0.00,VWS V14.00,2013-04-28 00:48:00,
2013-04-27 20:53:00,50.0,35.8,30.31,South,180,1.0,6.0,58,0.00,,CLR,0.00,VWS V14.00,2013-04-28 00:53:00,
2013-04-27 20:58:00,49.9,36.6,30.31,South,179,2.0,3.0,60,0.00,,CLR,0.00,VWS V14.00,2013-04-28 00:58:00,
2013-04-27 21:03:00,49.6,36.3,30.31,South,181,1.0,6.0,60,0.00,,CLR,0.00,VWS V14.00,2013-04-28 01:03:00,
2013-04-27 21:08:00,49.4,36.5,30.32,South,186,2.0,6.0,61,0.00,,CLR,0.00,VWS V14.00,2013-04-28 01:08:00,
2013-04-27 21:13:00,49.3,36.8,30.32,SSE,161,5.0,8.0,62,0.00,,CLR,0.00,VWS V14.00,2013-04-28 01:13:00,
2013-04-27 21:18:00,49.1,36.7,30.32,SSW,207,3.0,8.0,62,0.00,,CLR,0.00,VWS V14.00,2013-04-28 01:18:00,
2013-04-27 21:23:00,48.8,36.4,30.32,SSW,207,2.0,8.0,62,0.00,,CLR,0.00,VWS V14.00,2013-04-28 01:23:00,
2013-04-27 21:28:00,48.7,36.7,30.32,SSW,207,4.0,4.0,63,0.00,,CLR,0.00,VWS V14.00,2013-04-28 01:28:00,
2013-04-27 21:33:00,48.5,36.9,30.32,SSW,207,2.0,4.0,64,0.00,,CLR,0.00,VWS V14.00,2013-04-28 01:33:00,
2013-04-27 21:38:00,48.4,36.8,30.33,SSW,207,2.0,5.0,64,0.00,,CLR,0.00,VWS V14.00,2013-04-28 01:38:00,
2013-04-27 21:43:00,48.2,37.0,30.33,SSW,206,3.0,5.0,65,0.00,,CLR,0.00,VWS V14.00,2013-04-28 01:43:00,
2013-04-27 21:48:00,48.1,36.9,30.33,SSE,150,4.0,6.0,65,0.00,,CLR,0.00,VWS V14.00,2013-04-28 01:48:00,
2013-04-27 21:53:00,47.9,37.1,30.33,South,180,1.0,6.0,66,0.00,,CLR,0.00,VWS V14.00,2013-04-28 01:53:00,
2013-04-27 21:58:00,47.8,37.0,30.33,South,173,2.0,3.0,66,0.00,,CLR,0.00,VWS V14.00,2013-04-28 01:58:00,
2013-04-27 22:03:00,47.6,36.8,30.33,SSE,165,1.0,4.0,66,0.00,,CLR,0.00,VWS V14.00,2013-04-28 02:03:00,
2013-04-27 22:08:00,47.6,36.8,30.33,SSE,165,3.0,4.0,66,0.00,,CLR,0.00,VWS V14.00,2013-04-28 02:08:00,
2013-04-27 22:13:00,47.5,37.1,30.33,SSE,165,2.0,4.0,67,0.00,,CLR,0.00,VWS V14.00,2013-04-28 02:13:00,
2013-04-27 22:18:00,47.3,37.3,30.33,SSE,166,1.0,4.0,68,0.00,,CLR,0.00,VWS V14.00,2013-04-28 02:18:00,
2013-04-27 22:23:00,47.1,37.1,30.33,SSE,166,1.0,4.0,68,0.00,,CLR,0.00,VWS V14.00,2013-04-28 02:23:00,
2013-04-27 22:28:00,46.9,36.9,30.33,SSE,166,1.0,3.0,68,0.00,,CLR,0.00,VWS V14.00,2013-04-28 02:28:00,
2013-04-27 22:33:00,46.6,37.0,30.33,SSE,166,1.0,3.0,69,0.00,,CLR,0.00,VWS V14.00,2013-04-28 02:33:00,
2013-04-27 22:38:00,46.5,36.9,30.33,SSE,166,2.0,3.0,69,0.00,,CLR,0.00,VWS V14.00,2013-04-28 02:38:00,
2013-04-27 22:43:00,46.3,37.1,30.33,SSE,166,1.0,3.0,70,0.00,,CLR,0.00,VWS V14.00,2013-04-28 02:43:00,
2013-04-27 22:48:00,46.1,36.9,30.33,SSE,166,1.0,4.0,70,0.00,,CLR,0.00,VWS V14.00,2013-04-28 02:48:00,
2013-04-27 22:53:00,45.9,36.7,30.33,SSE,167,1.0,5.0,70,0.00,,CLR,0.00,VWS V14.00,2013-04-28 02:53:00,
2013-04-27 22:58:00,45.8,37.0,30.33,SSE,167,1.0,2.0,71,0.00,,CLR,0.00,VWS V14.00,2013-04-28 02:58:00,
2013-04-27 23:03:00,45.5,36.7,30.33,SSE,167,0.0,2.0,71,0.00,,CLR,0.00,VWS V14.00,2013-04-28 03:03:00,
2013-04-27 23:08:00,45.3,37.2,30.33,SSE,167,1.0,2.0,73,0.00,,CLR,0.00,VWS V14.00,2013-04-28 03:08:00,
2013-04-27 23:13:00,44.8,36.7,30.33,SSE,167,1.0,2.0,73,0.00,,CLR,0.00,VWS V14.00,2013-04-28 03:13:00,
2013-04-27 23:18:00,44.5,36.4,30.33,SSE,167,2.0,3.0,73,0.00,,CLR,0.00,VWS V14.00,2013-04-28 03:18:00,
2013-04-27 23:23:00,44.1,36.4,30.33,SSE,167,2.0,3.0,74,0.00,,CLR,0.00,VWS V14.00,2013-04-28 03:23:00,
2013-04-27 23:28:00,44.1,36.7,30.33,SSE,167,2.0,3.0,75,0.00,,CLR,0.00,VWS V14.00,2013-04-28 03:28:00,
2013-04-27 23:33:00,44.0,36.6,30.34,SSE,167,1.0,3.0,75,0.00,,CLR,0.00,VWS V14.00,2013-04-28 03:33:00,
2013-04-27 23:38:00,44.0,36.6,30.34,SSE,167,0.0,3.0,75,0.00,,CLR,0.00,VWS V14.00,2013-04-28 03:38:00,
2013-04-27 23:43:00,43.8,36.4,30.34,SSE,167,1.0,3.0,75,0.00,,CLR,0.00,VWS V14.00,2013-04-28 03:43:00,
2013-04-27 23:48:00,43.4,36.3,30.33,SSE,167,2.0,3.0,76,0.00,,CLR,0.00,VWS V14.00,2013-04-28 03:48:00,
2013-04-27 23:53:00,43.1,36.4,30.33,SSE,167,1.0,3.0,77,0.00,,CLR,0.00,VWS V14.00,2013-04-28 03:53:00,